createdAt,value
2023-05-22T00:00:44.454Z,-11277.66
2023-05-22T00:03:51.020Z,-11277.22
2023-05-22T00:06:58.888Z,-11274.56
2023-05-22T00:10:06.105Z,-11278.63
2023-05-22T00:13:12.597Z,-11274.41
2023-05-22T00:16:19.008Z,-11278.34
2023-05-22T00:19:25.258Z,-11275.53
2023-05-22T00:22:35.736Z,-11276.66
2023-05-22T00:25:42.449Z,-11278.63
2023-05-22T00:28:49.034Z,-11276.09
2023-05-22T00:31:55.619Z,-11272.16
2023-05-22T00:35:02.000Z,-11273.84
2023-05-22T00:38:09.705Z,-11268.50
2023-05-22T00:41:15.957Z,-11273.56
2023-05-22T00:44:23.176Z,-11278.50
2023-05-22T00:47:29.362Z,-11276.66
2023-05-22T00:50:35.568Z,-11269.78
2023-05-22T00:53:44.730Z,-11266.81
2023-05-22T00:56:51.636Z,-11268.94
2023-05-22T00:59:58.893Z,-11271.59
2023-05-22T01:03:08.154Z,-11266.53
2023-05-22T01:06:15.397Z,-11263.44
2023-05-22T01:09:22.843Z,-11273.72
2023-05-22T01:12:35.657Z,-11262.03
2023-05-22T01:15:48.789Z,-11262.59
2023-05-22T01:19:02.928Z,-11268.22
2023-05-22T01:22:25.163Z,-11267.66
2023-05-22T01:26:04.103Z,-11269.91
2023-05-22T01:29:25.101Z,-11269.06
2023-05-22T01:32:35.052Z,-11270.75
2023-05-22T01:35:43.058Z,-11269.63
2023-05-22T01:38:51.448Z,-11269.06
2023-05-22T01:41:58.114Z,-11268.38
2023-05-22T01:45:04.578Z,-11268.50
2023-05-22T01:48:12.640Z,-11267.94
2023-05-22T01:51:31.739Z,-11268.09
2023-05-22T01:54:42.392Z,-11266.81
2023-05-22T01:57:57.315Z,-11269.34
2023-05-22T02:01:05.272Z,-11266.81
2023-05-22T02:04:16.445Z,-11265.84
2023-05-22T02:07:25.112Z,-11266.81
2023-05-22T02:10:32.942Z,-11260.63
2023-05-22T02:13:39.839Z,-11265.13
2023-05-22T02:16:47.778Z,-11263.44
2023-05-22T02:19:55.674Z,-11263.44
2023-05-22T02:23:02.243Z,-11265.97
2023-05-22T02:26:08.568Z,-11266.81
2023-05-22T02:29:14.652Z,-11263.72
2023-05-22T02:32:21.046Z,-11263.72
2023-05-22T02:35:29.047Z,-11265.00
2023-05-22T02:38:35.651Z,-11266.25
2023-05-22T02:41:41.787Z,-11264.28
2023-05-22T02:44:48.103Z,-11264.84
2023-05-22T02:47:54.384Z,-11263.72
2023-05-22T02:51:02.232Z,-11267.66
2023-05-22T02:54:08.496Z,-11264.56
2023-05-22T02:57:14.722Z,-11254.44
2023-05-22T03:00:22.544Z,-11258.94
2023-05-22T03:03:29.693Z,-11252.75
2023-05-22T03:06:38.391Z,-11258.22
2023-05-22T03:09:44.978Z,-11259.22
2023-05-22T03:12:52.012Z,-11257.09
2023-05-22T03:15:59.899Z,-11260.63
2023-05-22T03:19:10.486Z,-11259.22
2023-05-22T03:22:18.777Z,-11257.81
2023-05-22T03:25:25.524Z,-11257.94
2023-05-22T03:28:32.074Z,-11255.84
2023-05-22T03:31:38.345Z,-11258.66
2023-05-22T03:34:44.738Z,-11255.00
2023-05-22T03:37:52.342Z,-11251.06
2023-05-22T03:40:59.020Z,-11250.78
2023-05-22T03:44:05.347Z,-11257.38
2023-05-22T03:47:11.922Z,-11253.03
2023-05-22T03:50:18.412Z,-11256.69
2023-05-22T03:53:25.859Z,-11266.81
2023-05-22T03:56:32.153Z,-11277.50
2023-05-22T03:59:38.282Z,-11262.44
2023-05-22T04:06:10.954Z,-11269.91
2023-05-22T04:09:18.876Z,-11268.94
2023-05-22T04:12:25.570Z,-11267.66
2023-05-22T04:15:34.016Z,-11265.97
2023-05-22T04:18:40.283Z,-11262.31
2023-05-22T04:21:46.627Z,-11266.25
2023-05-22T04:24:54.179Z,-11270.75
2023-05-22T04:28:03.183Z,-11265.97
2023-05-22T04:31:09.831Z,-11262.59
2023-05-22T04:34:18.594Z,-11270.63
2023-05-22T04:37:26.590Z,-11276.66
2023-05-22T04:40:34.569Z,-11264.56
2023-05-22T04:43:40.764Z,-11262.16
2023-05-22T04:46:47.225Z,-11265.69
2023-05-22T04:49:53.835Z,-11265.69
2023-05-22T04:53:04.478Z,-11270.34
2023-05-22T04:56:14.665Z,-11280.59
2023-05-22T04:59:23.434Z,-11275.53
2023-05-22T05:02:30.038Z,-11287.91
2023-05-22T05:05:36.485Z,-11290.47
2023-05-22T05:08:44.425Z,-11284.00
2023-05-22T05:11:52.170Z,-11285.13
2023-05-22T05:14:58.819Z,-11284.13
2023-05-22T05:18:05.189Z,-11292.16
2023-05-22T05:21:11.327Z,-11296.66
2023-05-22T05:24:18.565Z,-11297.50
2023-05-22T05:27:26.245Z,-11301.72
2023-05-22T05:30:32.263Z,-11301.44
2023-05-22T05:33:38.440Z,-11304.81
2023-05-22T05:36:45.154Z,-11306.50
2023-05-22T05:39:51.757Z,-11309.59
2023-05-22T05:42:59.383Z,-11310.03
2023-05-22T05:46:06.349Z,-11307.34
2023-05-22T05:49:13.167Z,-11304.81
2023-05-22T05:52:19.772Z,-11303.00
2023-05-22T05:55:26.194Z,-11307.06
2023-05-22T05:58:34.183Z,-11303.41
2023-05-22T06:01:44.761Z,-11302.72
2023-05-22T06:04:51.170Z,-11311.56
2023-05-22T06:07:58.379Z,-11313.84
2023-05-22T06:11:05.041Z,-11314.69
2023-05-22T06:14:12.798Z,-11318.06
2023-05-22T06:17:19.497Z,-11319.75
2023-05-22T06:20:26.316Z,-11320.59
2023-05-22T06:23:32.858Z,-11310.59
2023-05-22T06:26:39.375Z,-11324.25
2023-05-22T06:29:47.123Z,-11323.41
2023-05-22T06:32:54.038Z,-11331.28
2023-05-22T06:36:01.119Z,-11339.19
2023-05-22T06:39:08.725Z,-11335.09
2023-05-22T06:42:15.291Z,-11334.81
2023-05-22T06:45:23.049Z,-11336.09
2023-05-22T06:48:29.806Z,-11343.41
2023-05-22T06:51:36.224Z,-11342.00
2023-05-22T06:54:44.093Z,-11346.50
2023-05-22T06:57:51.123Z,-11350.88
2023-05-22T07:00:59.021Z,-11356.06
2023-05-22T07:04:06.220Z,-11348.75
2023-05-22T07:07:12.830Z,-11353.13
2023-05-22T07:10:19.480Z,-11360.72
2023-05-22T07:13:26.068Z,-11358.47
2023-05-22T07:16:33.631Z,-11360.03
2023-05-22T07:19:40.082Z,-11366.66
2023-05-22T07:22:46.211Z,-11374.69
2023-05-22T07:25:52.491Z,-11364.53
2023-05-22T07:28:58.710Z,-11374.69
2023-05-22T07:32:07.402Z,-11373.28
2023-05-22T07:35:14.083Z,-11376.94
2023-05-22T07:38:21.320Z,-11380.75
2023-05-22T07:41:28.453Z,-11382.84
2023-05-22T07:44:34.878Z,-11368.19
2023-05-22T07:47:42.745Z,-11378.91
2023-05-22T07:50:49.482Z,-11376.09
2023-05-22T07:53:55.928Z,-11375.25
2023-05-22T07:57:04.557Z,-11375.53
2023-05-22T08:00:14.032Z,-11386.50
2023-05-22T08:03:23.998Z,-11391.31
2023-05-22T08:06:31.152Z,-11395.41
2023-05-22T08:09:37.896Z,-11394.69
2023-05-22T08:12:44.677Z,-11395.25
2023-05-22T08:15:51.177Z,-11392.44
2023-05-22T08:19:09.213Z,-11390.75
2023-05-22T08:22:15.663Z,-11388.06
2023-05-22T08:25:21.966Z,-11378.91
2023-05-22T08:28:28.279Z,-11379.63
2023-05-22T08:31:34.640Z,-11371.00
2023-05-22T08:34:43.000Z,-11363.41
2023-05-22T08:37:49.460Z,-11368.75
2023-05-22T08:40:56.115Z,-11370.44
2023-05-22T08:44:02.301Z,-11371.84
2023-05-22T08:47:11.488Z,-11368.91
2023-05-22T08:50:20.245Z,-11360.44
2023-05-22T08:53:29.782Z,-11367.91
2023-05-22T08:56:39.798Z,-11354.38
2023-05-22T08:59:52.875Z,-11354.38
2023-05-22T09:02:59.672Z,-11340.88
2023-05-22T09:06:09.558Z,-11339.75
2023-05-22T09:09:16.088Z,-11330.72
2023-05-22T09:12:22.546Z,-11333.28
2023-05-22T09:15:31.421Z,-11329.59
2023-05-22T09:18:38.475Z,-11332.13
2023-05-22T09:21:46.423Z,-11329.19
2023-05-22T09:24:53.726Z,-11333.56
2023-05-22T09:27:59.880Z,-11336.38
2023-05-22T09:31:06.804Z,-11336.22
2023-05-22T09:34:15.726Z,-11335.94
2023-05-22T09:37:24.108Z,-11343.13
2023-05-22T09:40:31.975Z,-11348.75
2023-05-22T09:43:38.630Z,-11349.75
2023-05-22T09:46:47.330Z,-11350.16
2023-05-22T09:49:53.976Z,-11359.31
2023-05-22T09:53:04.201Z,-11353.53
2023-05-22T09:56:19.126Z,-11359.19
2023-05-22T09:59:31.592Z,-11371.16
2023-05-22T10:02:39.459Z,-11377.22
2023-05-22T10:05:50.004Z,-11380.59
2023-05-22T10:09:04.078Z,-11389.91
2023-05-22T10:12:16.330Z,-11391.44
2023-05-22T10:15:23.113Z,-11401.72
2023-05-22T10:18:30.407Z,-11407.94
2023-05-22T10:21:38.143Z,-11410.19
2023-05-22T10:24:47.887Z,-11416.38
2023-05-22T10:27:55.209Z,-11416.09
2023-05-22T10:31:06.498Z,-11429.09
2023-05-22T10:34:24.979Z,-11439.66
2023-05-22T10:37:44.225Z,-11443.19
2023-05-22T10:40:52.959Z,-11454.75
2023-05-22T10:43:59.615Z,-11454.19
2023-05-22T10:47:10.422Z,-11443.75
2023-05-22T10:50:19.607Z,-11445.44
2023-05-22T10:53:28.131Z,-11430.34
2023-05-22T10:56:37.343Z,-11422.88
2023-05-22T10:59:43.733Z,-11431.34
2023-05-22T11:02:49.958Z,-11437.53
2023-05-22T11:05:56.216Z,-11447.41
2023-05-22T11:09:18.894Z,-11444.44
2023-05-22T11:12:28.910Z,-11438.94
2023-05-22T11:15:35.664Z,-11438.09
2023-05-22T11:18:41.984Z,-11443.75
2023-05-22T11:21:48.812Z,-11418.38
2023-05-22T11:24:56.531Z,-11411.31
2023-05-22T11:28:05.964Z,-11401.16
2023-05-22T11:31:12.351Z,-11377.78
2023-05-22T11:34:18.879Z,-11378.06
2023-05-22T11:37:25.836Z,-11371.44
2023-05-22T11:40:32.383Z,-11370.16
2023-05-22T11:43:43.543Z,-11372.44
2023-05-22T11:46:50.157Z,-11381.72
2023-05-22T11:49:58.280Z,-11384.81
2023-05-22T11:53:04.727Z,-11385.09
2023-05-22T11:56:11.448Z,-11394.13
2023-05-22T11:59:22.201Z,-11393.41
2023-05-22T12:02:28.965Z,-11399.91
2023-05-22T12:05:35.587Z,-11397.09
2023-05-22T12:08:42.973Z,-11397.38
2023-05-22T12:11:50.021Z,-11404.28
2023-05-22T12:14:59.166Z,-11408.50
2023-05-22T12:18:09.498Z,-11399.47
2023-05-22T12:21:15.957Z,-11404.97
2023-05-22T12:24:23.618Z,-11401.16
2023-05-22T12:27:33.511Z,-11403.44
2023-05-22T12:30:45.180Z,-11393.13
2023-05-22T12:33:55.429Z,-11403.44
2023-05-22T12:37:02.047Z,-11411.88
2023-05-22T12:40:10.150Z,-11414.13
2023-05-22T12:43:16.820Z,-11418.38
2023-05-22T12:46:24.515Z,-11412.72
2023-05-22T12:49:31.063Z,-11421.47
2023-05-22T12:52:37.764Z,-11418.66
2023-05-22T12:55:44.895Z,-11428.53
2023-05-22T12:58:51.382Z,-11423.59
2023-05-22T13:02:02.419Z,-11419.34
2023-05-22T13:05:09.280Z,-11416.09
2023-05-22T13:08:15.739Z,-11418.09
2023-05-22T13:11:23.553Z,-11421.47
2023-05-22T13:14:29.761Z,-11431.34
2023-05-22T13:17:37.689Z,-11426.25
2023-05-22T13:20:44.383Z,-11412.72
2023-05-22T13:23:50.806Z,-11417.94
2023-05-22T13:26:57.170Z,-11426.81
2023-05-22T13:30:03.690Z,-11431.75
2023-05-22T13:33:12.433Z,-11432.31
2023-05-22T13:36:19.488Z,-11440.63
2023-05-22T13:39:25.764Z,-11433.16
2023-05-22T13:42:32.291Z,-11441.63
2023-05-22T13:45:38.746Z,-11439.09
2023-05-22T13:48:46.590Z,-11440.63
2023-05-22T13:51:53.037Z,-11438.09
2023-05-22T13:54:59.076Z,-11448.38
2023-05-22T13:58:05.503Z,-11446.56
2023-05-22T14:01:11.610Z,-11453.34
2023-05-22T14:04:19.165Z,-11449.53
2023-05-22T14:07:25.292Z,-11447.69
2023-05-22T14:10:31.302Z,-11452.47
2023-05-22T14:13:37.526Z,-11458.97
2023-05-22T14:16:44.219Z,-11469.25
2023-05-22T14:19:51.875Z,-11458.69
2023-05-22T14:22:58.659Z,-11460.09
2023-05-22T14:26:05.015Z,-11466.88
2023-05-22T14:29:11.826Z,-11461.09
2023-05-22T14:32:18.470Z,-11453.91
2023-05-22T14:35:26.047Z,-11454.31
2023-05-22T14:38:34.479Z,-11457.84
2023-05-22T14:41:40.820Z,-11443.19
2023-05-22T14:44:46.933Z,-11435.28
2023-05-22T14:47:53.398Z,-11437.81
2023-05-22T14:51:01.450Z,-11436.97
2023-05-22T14:54:08.170Z,-11437.97
2023-05-22T14:57:14.477Z,-11431.91
2023-05-22T15:00:20.827Z,-11430.78
2023-05-22T15:03:27.154Z,-11434.00
2023-05-22T15:06:35.896Z,-11432.31
2023-05-22T15:09:42.185Z,-11425.00
2023-05-22T15:12:48.516Z,-11427.53
2023-05-22T15:15:54.486Z,-11441.75
2023-05-22T15:19:00.933Z,-11431.75
2023-05-22T15:22:19.477Z,-11433.88
2023-05-22T15:25:26.667Z,-11436.41
2023-05-22T15:28:32.944Z,-11436.69
2023-05-22T15:31:39.207Z,-11427.94
2023-05-22T15:34:45.338Z,-11431.75
2023-05-22T15:37:52.964Z,-11421.31
2023-05-22T15:40:59.755Z,-11424.72
2023-05-22T15:44:06.210Z,-11420.19
2023-05-22T15:47:12.225Z,-11422.31
2023-05-22T15:50:18.587Z,-11418.78
2023-05-22T15:53:26.227Z,-11416.66
2023-05-22T15:56:32.169Z,-11415.97
2023-05-22T15:59:38.230Z,-11416.38
2023-05-22T16:02:44.384Z,-11412.59
2023-05-22T16:05:51.050Z,-11418.09
2023-05-22T16:08:58.656Z,-11407.66
2023-05-22T16:12:05.753Z,-11401.88
2023-05-22T16:15:13.098Z,-11406.53
2023-05-22T16:18:21.532Z,-11403.44
2023-05-22T16:21:27.668Z,-11396.38
2023-05-22T16:24:35.424Z,-11401.59
2023-05-22T16:27:41.862Z,-11400.31
2023-05-22T16:30:48.117Z,-11402.88
2023-05-22T16:33:54.405Z,-11401.44
2023-05-22T16:37:03.405Z,-11397.22
2023-05-22T16:40:12.247Z,-11389.91
2023-05-22T16:43:18.834Z,-11383.97
2023-05-22T16:46:25.445Z,-11391.31
2023-05-22T16:49:31.543Z,-11392.44
2023-05-22T16:52:38.037Z,-11386.94
2023-05-22T16:55:45.772Z,-11379.47
2023-05-22T16:58:52.065Z,-11380.47
2023-05-22T17:01:58.349Z,-11382.16
2023-05-22T17:05:04.544Z,-11376.78
2023-05-22T17:08:10.731Z,-11390.47
2023-05-22T17:11:18.286Z,-11385.53
2023-05-22T17:14:26.025Z,-11380.19
2023-05-22T17:17:32.474Z,-11378.06
2023-05-22T17:20:38.533Z,-11376.94
2023-05-22T17:23:44.711Z,-11373.28
2023-05-22T17:26:52.548Z,-11361.16
2023-05-22T17:29:59.150Z,-11360.16
2023-05-22T17:33:05.358Z,-11355.09
2023-05-22T17:36:11.600Z,-11359.03
2023-05-22T17:39:17.646Z,-11357.22
2023-05-22T17:42:25.292Z,-11347.63
2023-05-22T17:45:32.086Z,-11340.72
2023-05-22T17:48:38.386Z,-11337.78
2023-05-22T17:51:44.729Z,-11335.50
2023-05-22T17:54:51.175Z,-11334.66
2023-05-22T17:57:59.022Z,-11336.66
2023-05-22T18:01:05.615Z,-11330.16
2023-05-22T18:04:12.595Z,-11335.50
2023-05-22T18:07:20.091Z,-11339.47
2023-05-22T18:10:26.416Z,-11331.44
2023-05-22T18:13:33.880Z,-11314.53
2023-05-22T18:16:40.037Z,-11310.59
2023-05-22T18:19:46.113Z,-11319.19
2023-05-22T18:22:52.393Z,-11316.09
2023-05-22T18:25:58.566Z,-11313.56
2023-05-22T18:29:06.316Z,-11327.50
2023-05-22T18:32:13.983Z,-11319.19
2023-05-22T18:35:20.336Z,-11314.13
2023-05-22T18:38:27.462Z,-11320.16
2023-05-22T18:41:33.980Z,-11321.16
2023-05-22T18:44:41.520Z,-11319.19
2023-05-22T18:47:48.000Z,-11317.78
2023-05-22T18:50:55.746Z,-11317.50
2023-05-22T18:54:01.849Z,-11317.78
2023-05-22T18:57:08.364Z,-11321.16
2023-05-22T19:00:16.412Z,-11316.78
2023-05-22T19:03:22.909Z,-11311.00
2023-05-22T19:06:29.171Z,-11308.63
2023-05-22T19:09:35.442Z,-11310.03
2023-05-22T19:12:41.562Z,-11309.03
2023-05-22T19:15:49.077Z,-11306.22
2023-05-22T19:18:55.408Z,-11305.09
2023-05-22T19:22:01.591Z,-11302.00
2023-05-22T19:25:08.534Z,-11302.44
2023-05-22T19:28:14.612Z,-11303.97
2023-05-22T19:31:22.196Z,-11312.13
2023-05-22T19:34:28.697Z,-11309.75
2023-05-22T19:37:34.560Z,-11307.22
2023-05-22T19:40:40.894Z,-11307.63
2023-05-22T19:43:47.532Z,-11309.31
2023-05-22T19:46:56.774Z,-11308.19
2023-05-22T19:50:03.792Z,-11307.63
2023-05-22T19:53:10.120Z,-11308.75
2023-05-22T19:56:16.327Z,-11307.63
2023-05-22T19:59:22.564Z,-11307.91
2023-05-22T20:02:30.420Z,-11302.84
2023-05-22T20:05:37.260Z,-11303.41
2023-05-22T20:08:44.281Z,-11301.31
2023-05-22T20:11:50.331Z,-11303.84
2023-05-22T20:14:58.432Z,-11301.72
2023-05-22T20:18:07.004Z,-11301.59
2023-05-22T20:21:13.479Z,-11302.84
2023-05-22T20:24:21.198Z,-11297.06
2023-05-22T20:27:27.405Z,-11292.44
2023-05-22T20:30:33.809Z,-11301.88
2023-05-22T20:33:41.437Z,-11297.78
2023-05-22T20:36:48.620Z,-11306.22
2023-05-22T20:39:55.136Z,-11303.41
2023-05-22T20:43:02.708Z,-11300.31
2023-05-22T20:46:09.610Z,-11303.00
2023-05-22T20:49:20.640Z,-11304.53
2023-05-22T20:52:30.440Z,-11297.06
2023-05-22T20:55:37.321Z,-11297.34
2023-05-22T20:58:43.904Z,-11295.81
2023-05-22T21:01:50.043Z,-11295.25
2023-05-22T21:04:57.506Z,-11294.81
2023-05-22T21:08:03.964Z,-11292.56
2023-05-22T21:11:10.578Z,-11292.72
2023-05-22T21:14:17.409Z,-11290.59
2023-05-22T21:17:24.372Z,-11290.31
2023-05-22T21:20:31.978Z,-11287.78
2023-05-22T21:23:38.291Z,-11292.16
2023-05-22T21:26:44.330Z,-11295.53
2023-05-22T21:29:50.109Z,-11296.66
2023-05-22T21:32:56.545Z,-11299.06
2023-05-22T21:36:04.192Z,-11293.97
2023-05-22T21:39:10.961Z,-11291.31
2023-05-22T21:42:17.458Z,-11285.69
2023-05-22T21:45:23.789Z,-11291.31
2023-05-22T21:48:30.140Z,-11289.34
2023-05-22T21:51:37.898Z,-11293.00
2023-05-22T21:54:44.183Z,-11288.91
2023-05-22T21:57:50.560Z,-11301.16
2023-05-22T22:00:57.028Z,-11290.59
2023-05-22T22:04:03.209Z,-11288.19
2023-05-22T22:07:10.890Z,-11289.19
2023-05-22T22:10:17.179Z,-11288.19
2023-05-22T22:13:23.569Z,-11286.66
2023-05-22T22:16:29.778Z,-11288.78
2023-05-22T22:19:36.170Z,-11290.88
2023-05-22T22:22:43.791Z,-11288.19
2023-05-22T22:25:50.075Z,-11284.97
2023-05-22T22:28:56.087Z,-11286.09
2023-05-22T22:32:02.226Z,-11287.63
2023-05-22T22:35:09.196Z,-11277.66
2023-05-22T22:38:17.056Z,-11274.41
2023-05-22T22:41:23.503Z,-11284.28
2023-05-22T22:44:29.677Z,-11275.41
2023-05-22T22:47:36.388Z,-11286.38
2023-05-22T22:50:42.968Z,-11273.44
2023-05-22T22:53:50.612Z,-11266.53
2023-05-22T22:56:57.456Z,-11268.66
2023-05-22T23:00:04.474Z,-11272.16
2023-05-22T23:03:11.535Z,-11274.97
2023-05-22T23:06:18.499Z,-11283.13
2023-05-22T23:09:25.936Z,-11284.28
2023-05-22T23:12:35.282Z,-11285.97
2023-05-22T23:15:42.427Z,-11273.84
2023-05-22T23:18:48.847Z,-11277.38
2023-05-22T23:21:54.913Z,-11271.88
2023-05-22T23:25:02.496Z,-11278.78
2023-05-22T23:28:08.789Z,-11275.97
2023-05-22T23:31:14.990Z,-11275.13
2023-05-22T23:34:21.519Z,-11278.06
2023-05-22T23:37:27.820Z,-11279.06
2023-05-22T23:40:35.202Z,-11282.00
2023-05-22T23:43:41.544Z,-11278.50
2023-05-22T23:46:48.321Z,-11279.75
2023-05-22T23:49:56.787Z,-11275.25
2023-05-22T23:53:02.876Z,-11273.84
2023-05-22T23:56:10.998Z,-11272.31
2023-05-22T23:59:16.987Z,-11274.28
